Map

Track Data

SID SEASON NUMBER BASIN SUBBASIN NAME ISO_TIME NATURE LAT LON WMO_WIND WMO_PRES WMO_AGENCY TRACK_TYPE DIST2LAND LANDFALL IFLAG USA_AGENCY USA_ATCF_ID USA_LAT USA_LON USA_RECORD USA_STATUS USA_WIND USA_PRES USA_SSHS USA_R34_NE USA_R34_SE USA_R34_SW USA_R34_NW USA_R50_NE USA_R50_SE USA_R50_SW USA_R50_NW USA_R64_NE USA_R64_SE USA_R64_SW USA_R64_NW USA_POCI USA_ROCI USA_RMW USA_EYE TOKYO_LAT TOKYO_LON TOKYO_GRADE TOKYO_WIND TOKYO_PRES TOKYO_R50_DIR TOKYO_R50_LONG TOKYO_R50_SHORT TOKYO_R30_DIR TOKYO_R30_LONG TOKYO_R30_SHORT TOKYO_LAND CMA_LAT CMA_LON CMA_CAT CMA_WIND CMA_PRES HKO_LAT HKO_LON HKO_CAT HKO_WIND HKO_PRES NEWDELHI_LAT NEWDELHI_LON NEWDELHI_GRADE NEWDELHI_WIND NEWDELHI_PRES NEWDELHI_CI NEWDELHI_DP NEWDELHI_POCI REUNION_LAT REUNION_LON REUNION_TYPE REUNION_WIND REUNION_PRES REUNION_TNUM REUNION_CI REUNION_RMW REUNION_R34_NE REUNION_R34_SE REUNION_R34_SW REUNION_R34_NW REUNION_R50_NE REUNION_R50_SE REUNION_R50_SW REUNION_R50_NW REUNION_R64_NE REUNION_R64_SE REUNION_R64_SW REUNION_R64_NW BOM_LAT BOM_LON BOM_TYPE BOM_WIND BOM_PRES BOM_TNUM BOM_CI BOM_RMW BOM_R34_NE BOM_R34_SE BOM_R34_SW BOM_R34_NW BOM_R50_NE BOM_R50_SE BOM_R50_SW BOM_R50_NW BOM_R64_NE BOM_R64_SE BOM_R64_SW BOM_R64_NW BOM_ROCI BOM_POCI BOM_EYE BOM_POS_METHOD BOM_PRES_METHOD NADI_LAT NADI_LON NADI_CAT NADI_WIND NADI_PRES WELLINGTON_LAT WELLINGTON_LON WELLINGTON_WIND WELLINGTON_PRES DS824_LAT DS824_LON DS824_STAGE DS824_WIND DS824_PRES TD9636_LAT TD9636_LON TD9636_STAGE TD9636_WIND TD9636_PRES TD9635_LAT TD9635_LON TD9635_WIND TD9635_PRES TD9635_ROCI NEUMANN_LAT NEUMANN_LON NEUMANN_CLASS NEUMANN_WIND NEUMANN_PRES MLC_LAT MLC_LON MLC_CLASS MLC_WIND MLC_PRES USA_GUST BOM_GUST BOM_GUST_PER REUNION_GUST REUNION_GUST_PER USA_SEAHGT USA_SEARAD_NE USA_SEARAD_SE USA_SEARAD_SW USA_SEARAD_NW STORM_SPEED STORM_DIR
1933176N09318 1933 20 NA NA NOT_NAMED 1933-06-24 12:00:00 TS 9.00000 -42.5000 30 hurdat_atl main 1105 1048 O_____________ hurdat_atl AL021933 9.00000 -42.5000 TD 30 -1 13 270
1933176N09318 1933 20 NA NA NOT_NAMED 1933-06-24 15:00:00 TS 9.00019 -43.1400 main 1048 982 P_____________ AL021933 9.00019 -43.1400 TD 30 -1 13 270
1933176N09318 1933 20 NA NA NOT_NAMED 1933-06-24 18:00:00 TS 9.00000 -43.8000 30 hurdat_atl main 982 917 O_____________ hurdat_atl AL021933 9.00000 -43.8000 TD 30 -1 13 270
1933176N09318 1933 20 NA NA NOT_NAMED 1933-06-24 21:00:00 TS 8.99991 -44.4925 main 917 855 P_____________ AL021933 8.99991 -44.4925 TD 32 -1 14 270
1933176N09318 1933 20 NA NA NOT_NAMED 1933-06-25 00:00:00 TS 9.00000 -45.2000 35 hurdat_atl main 855 795 O_____________ hurdat_atl AL021933 9.00000 -45.2000 TS 35 0 14 270
1933176N09318 1933 20 NA NA NOT_NAMED 1933-06-25 03:00:00 TS 8.99987 -45.9000 main 795 739 P_____________ AL021933 8.99987 -45.9000 TS 35 0 14 270
1933176N09318 1933 20 NA NA NOT_NAMED 1933-06-25 06:00:00 TS 9.00000 -46.6000 35 hurdat_atl main 739 687 O_____________ hurdat_atl AL021933 9.00000 -46.6000 TS 35 0 14 270
1933176N09318 1933 20 NA NA NOT_NAMED 1933-06-25 09:00:00 TS 8.99991 -47.3075 main 687 640 P_____________ AL021933 8.99991 -47.3075 TS 35 0 14 270
1933176N09318 1933 20 NA NA NOT_NAMED 1933-06-25 12:00:00 TS 9.00000 -48.0000 35 hurdat_atl main 640 605 O_____________ hurdat_atl AL021933 9.00000 -48.0000 TS 35 0 13 270
1933176N09318 1933 20 NA NA NOT_NAMED 1933-06-25 15:00:00 TS 8.99980 -48.6500 main 605 560 P_____________ AL021933 8.99980 -48.6500 TS 35 0 13 270
1933176N09318 1933 20 NA NA NOT_NAMED 1933-06-25 18:00:00 TS 9.00000 -49.3000 35 hurdat_atl main 560 513 O_____________ hurdat_atl AL021933 9.00000 -49.3000 TS 35 0 13 270
1933176N09318 1933 20 NA NA NOT_NAMED 1933-06-25 21:00:00 TS 8.99241 -49.9925 main 513 474 P_____________ AL021933 8.99241 -49.9925 TS 37 0 14 270
1933176N09318 1933 20 NA NA NOT_NAMED 1933-06-26 00:00:00 TS 9.00000 -50.7000 40 hurdat_atl main 474 442 O_____________ hurdat_atl AL021933 9.00000 -50.7000 TS 40 0 14 272
1933176N09318 1933 20 NA NA NOT_NAMED 1933-06-26 03:00:00 TS 9.04237 -51.4000 main 442 424 P_____________ AL021933 9.04237 -51.4000 TS 40 0 14 274
1933176N09318 1933 20 NA NA NOT_NAMED 1933-06-26 06:00:00 TS 9.10000 -52.1000 40 hurdat_atl main 424 390 O_____________ hurdat_atl AL021933 9.10000 -52.1000 TS 40 0 14 274
1933176N09318 1933 20 NA NA NOT_NAMED 1933-06-26 09:00:00 TS 9.14991 -52.8075 main 390 377 P_____________ AL021933 9.14991 -52.8075 TS 42 0 14 274
1933176N09318 1933 20 NA NA NOT_NAMED 1933-06-26 12:00:00 TS 9.20000 -53.5000 45 hurdat_atl main 377 369 O_____________ hurdat_atl AL021933 9.20000 -53.5000 TS 45 0 13 274
1933176N09318 1933 20 NA NA NOT_NAMED 1933-06-26 15:00:00 TS 9.24980 -54.1500 main 369 369 P_____________ AL021933 9.24980 -54.1500 TS 47 0 13 274
1933176N09318 1933 20 NA NA NOT_NAMED 1933-06-26 18:00:00 TS 9.30000 -54.8000 50 hurdat_atl main 380 380 O_____________ hurdat_atl AL021933 9.30000 -54.8000 TS 50 0 13 274
1933176N09318 1933 20 NA NA NOT_NAMED 1933-06-26 21:00:00 TS 9.34991 -55.4925 main 380 343 P_____________ AL021933 9.34991 -55.4925 TS 52 0 14 274
1933176N09318 1933 20 NA NA NOT_NAMED 1933-06-27 00:00:00 TS 9.40000 -56.2000 55 hurdat_atl main 343 279 O_____________ hurdat_atl AL021933 9.40000 -56.2000 TS 55 0 14 274
1933176N09318 1933 20 NA NA NOT_NAMED 1933-06-27 03:00:00 TS 9.44986 -56.9000 main 279 227 P_____________ AL021933 9.44986 -56.9000 TS 57 0 14 274
1933176N09318 1933 20 NA NA NOT_NAMED 1933-06-27 06:00:00 TS 9.50000 -57.6000 60 hurdat_atl main 227 184 O_____________ hurdat_atl AL021933 9.50000 -57.6000 TS 60 0 14 274
1933176N09318 1933 20 NA NA NOT_NAMED 1933-06-27 09:00:00 TS 9.53486 -58.3001 main 184 159 P_____________ AL021933 9.53486 -58.3001 TS 65 1 14 274
1933176N09318 1933 20 NA NA NOT_NAMED 1933-06-27 12:00:00 TS 9.60000 -59.0000 70 hurdat_atl main 159 128 O_____________ hurdat_atl AL021933 9.60000 -59.0000 HU 70 1 14 278
1933176N09318 1933 20 NA NA NOT_NAMED 1933-06-27 15:00:00 TS 9.72736 -59.7000 main 128 69 P_____________ AL021933 9.72736 -59.7000 HU 72 1 14 282
1933176N09318 1933 20 NA NA NOT_NAMED 1933-06-27 18:00:00 TS 9.90000 -60.4000 75 hurdat_atl main 69 0 O_____________ hurdat_atl AL021933 9.90000 -60.4000 HU 75 1 14 284
1933176N09318 1933 20 NA CS NOT_NAMED 1933-06-27 21:00:00 TS 10.0774 -61.1001 main 0 0 P_____________ AL021933 10.0774 -61.1001 HU 75 1 14 286
1933176N09318 1933 20 NA CS NOT_NAMED 1933-06-28 00:00:00 TS 10.3000 -61.8000 75 hurdat_atl main 15 0 O_____________ hurdat_atl AL021933 10.3000 -61.8000 HU 75 1 15 290
1933176N09318 1933 20 NA NA NOT_NAMED 1933-06-28 03:00:00 TS 10.5848 -62.5000 main 0 0 P_____________ AL021933 10.5848 -62.5000 HU 70 1 15 294
1933176N09318 1933 20 NA CS NOT_NAMED 1933-06-28 06:00:00 TS 10.9000 -63.2000 65 hurdat_atl main 24 24 O_____________ hurdat_atl AL021933 10.9000 -63.2000 HU 65 1 15 294
1933176N09318 1933 20 NA CS NOT_NAMED 1933-06-28 09:00:00 TS 11.2074 -63.9076 main 70 68 P_____________ AL021933 11.2074 -63.9076 HU 65 1 15 294
1933176N09318 1933 20 NA CS NOT_NAMED 1933-06-28 12:00:00 TS 11.5000 -64.6000 65 hurdat_atl main 109 109 O_____________ hurdat_atl AL021933 11.5000 -64.6000 HU 65 1 14 293
1933176N09318 1933 20 NA CS NOT_NAMED 1933-06-28 15:00:00 TS 11.7647 -65.2502 main 154 145 P_____________ AL021933 11.7647 -65.2502 HU 65 1 14 291
1933176N09318 1933 20 NA CS NOT_NAMED 1933-06-28 18:00:00 TS 12.0000 -65.9000 65 hurdat_atl main 157 156 O_____________ hurdat_atl AL021933 12.0000 -65.9000 HU 65 1 14 289
1933176N09318 1933 20 NA CS NOT_NAMED 1933-06-28 21:00:00 TS 12.2074 -66.5927 main 179 179 P_____________ AL021933 12.2074 -66.5927 HU 67 1 14 286
1933176N09318 1933 20 NA CS NOT_NAMED 1933-06-29 00:00:00 TS 12.4000 -67.3000 70 hurdat_atl main 180 159 O_____________ hurdat_atl AL021933 12.4000 -67.3000 HU 70 1 14 286
1933176N09318 1933 20 NA CS NOT_NAMED 1933-06-29 03:00:00 TS 12.5999 -68.0076 main 159 149 P_____________ AL021933 12.5999 -68.0076 HU 72 1 14 286
1933176N09318 1933 20 NA CS NOT_NAMED 1933-06-29 06:00:00 TS 12.8000 -68.7000 75 hurdat_atl main 149 117 O_____________ hurdat_atl AL021933 12.8000 -68.7000 HU 75 1 14 287
1933176N09318 1933 20 NA CS NOT_NAMED 1933-06-29 09:00:00 TS 12.9999 -69.3801 main 114 109 P_____________ AL021933 12.9999 -69.3801 HU 77 1 13 288
1933176N09318 1933 20 NA CS NOT_NAMED 1933-06-29 12:00:00 TS 13.2000 -70.0000 80 hurdat_atl main 123 123 O_____________ hurdat_atl AL021933 13.2000 -70.0000 HU 80 1 12 290
1933176N09318 1933 20 NA CS NOT_NAMED 1933-06-29 15:00:00 TS 13.3998 -70.5226 main 149 139 P_____________ AL021933 13.3998 -70.5226 HU 80 1 11 292
1933176N09318 1933 20 NA CS NOT_NAMED 1933-06-29 18:00:00 TS 13.6000 -71.0000 80 hurdat_atl main 144 141 O_____________ hurdat_atl AL021933 13.6000 -71.0000 HU 80 1 10 293
1933176N09318 1933 20 NA CS NOT_NAMED 1933-06-29 21:00:00 TS 13.7999 -71.5001 main 156 156 P_____________ AL021933 13.7999 -71.5001 HU 80 1 11 292
1933176N09318 1933 20 NA CS NOT_NAMED 1933-06-30 00:00:00 TS 14.0000 -72.0000 80 hurdat_atl main 182 182 O_____________ hurdat_atl AL021933 14.0000 -72.0000 HU 80 1 10 293
1933176N09318 1933 20 NA CS NOT_NAMED 1933-06-30 03:00:00 TS 14.1998 -72.4926 main 219 219 P_____________ AL021933 14.1998 -72.4926 HU 80 1 11 292
1933176N09318 1933 20 NA CS NOT_NAMED 1933-06-30 06:00:00 TS 14.4000 -73.0000 80 hurdat_atl main 258 258 O_____________ hurdat_atl AL021933 14.4000 -73.0000 HU 80 1 11 291
1933176N09318 1933 20 NA CS NOT_NAMED 1933-06-30 09:00:00 TS 14.5924 -73.5426 main 303 303 P_____________ AL021933 14.5924 -73.5426 HU 80 1 11 291
1933176N09318 1933 20 NA CS NOT_NAMED 1933-06-30 12:00:00 TS 14.8000 -74.1000 80 hurdat_atl main 356 341 O_____________ hurdat_atl AL021933 14.8000 -74.1000 HU 80 1 12 293
1933176N09318 1933 20 NA CS NOT_NAMED 1933-06-30 15:00:00 TS 15.0424 -74.6575 main 346 309 P_____________ AL021933 15.0424 -74.6575 HU 82 1 12 295
1933176N09318 1933 20 NA CS NOT_NAMED 1933-06-30 18:00:00 TS 15.3000 -75.2000 85 hurdat_atl main 309 262 O_____________ hurdat_atl AL021933 15.3000 -75.2000 HU 85 2 11 297
1933176N09318 1933 20 NA CS NOT_NAMED 1933-06-30 21:00:00 TS 15.5648 -75.7075 main 262 235 P_____________ AL021933 15.5648 -75.7075 HU 85 2 11 297
1933176N09318 1933 20 NA CS NOT_NAMED 1933-07-01 00:00:00 TS 15.8000 -76.2000 85 hurdat_atl main 235 197 O_____________ hurdat_atl AL021933 15.8000 -76.2000 HU 85 2 10 293
1933176N09318 1933 20 NA CS NOT_NAMED 1933-07-01 03:00:00 TS 15.9724 -76.7001 main 197 179 P_____________ AL021933 15.9724 -76.7001 HU 85 2 10 287
1933176N09318 1933 20 NA CS NOT_NAMED 1933-07-01 06:00:00 TS 16.1000 -77.2000 85 hurdat_atl main 179 170 O_____________ hurdat_atl AL021933 16.1000 -77.2000 HU 85 2 10 283
1933176N09318 1933 20 NA CS NOT_NAMED 1933-07-01 09:00:00 TS 16.1923 -77.6927 main 176 176 P_____________ AL021933 16.1923 -77.6927 HU 85 2 10 282
1933176N09318 1933 20 NA CS NOT_NAMED 1933-07-01 12:00:00 TS 16.3000 -78.2000 85 hurdat_atl main 186 183 O_____________ hurdat_atl AL021933 16.3000 -78.2000 HU 85 2 10 286
1933176N09318 1933 20 NA CS NOT_NAMED 1933-07-01 15:00:00 TS 16.4774 -78.7425 main 189 188 P_____________ AL021933 16.4774 -78.7425 HU 85 2 11 291
1933176N09318 1933 20 NA CS NOT_NAMED 1933-07-01 18:00:00 TS 16.7000 -79.3000 85 hurdat_atl main 193 193 O_____________ hurdat_atl AL021933 16.7000 -79.3000 HU 85 2 12 292
1933176N09318 1933 20 NA CS NOT_NAMED 1933-07-01 21:00:00 TS 16.9125 -79.8653 main 215 215 P_____________ AL021933 16.9125 -79.8653 HU 85 2 12 295
1933176N09318 1933 20 NA CS NOT_NAMED 1933-07-02 00:00:00 TS 17.2000 -80.4000 85 hurdat_atl main 239 239 O_____________ hurdat_atl AL021933 17.2000 -80.4000 HU 85 2 12 306
1933176N09318 1933 20 NA CS NOT_NAMED 1933-07-02 03:00:00 TS 17.6049 -80.8801 main 272 270 P_____________ AL021933 17.6049 -80.8801 HU 85 2 12 316
1933176N09318 1933 20 NA CS NOT_NAMED 1933-07-02 06:00:00 TS 18.1000 -81.3000 85 hurdat_atl main 306 306 O_____________ hurdat_atl AL021933 18.1000 -81.3000 HU 85 2 13 324
1933176N09318 1933 20 NA CS NOT_NAMED 1933-07-02 09:00:00 TS 18.6499 -81.6726 main 333 259 P_____________ AL021933 18.6499 -81.6726 HU 85 2 13 329
1933176N09318 1933 20 NA CS NOT_NAMED 1933-07-02 12:00:00 TS 19.2000 -82.0000 85 hurdat_atl main 259 207 O_____________ hurdat_atl AL021933 19.2000 -82.0000 HU 85 2 12 329
1933176N09318 1933 20 NA CS NOT_NAMED 1933-07-02 15:00:00 TS 19.6574 -82.3079 main 197 146 P_____________ AL021933 19.6574 -82.3079 HU 85 2 11 328
1933176N09318 1933 20 NA CS NOT_NAMED 1933-07-02 18:00:00 TS 20.1000 -82.6000 85 hurdat_atl main 146 90 O_____________ hurdat_atl AL021933 20.1000 -82.6000 HU 85 2 11 330
1933176N09318 1933 20 NA CS NOT_NAMED 1933-07-02 21:00:00 TS 20.5999 -82.8927 main 90 49 P_____________ AL021933 20.5999 -82.8927 HU 85 2 12 331
1933176N09318 1933 20 NA CS NOT_NAMED 1933-07-03 00:00:00 TS 21.1000 -83.2000 85 hurdat_atl main 49 38 O_____________ hurdat_atl AL021933 21.1000 -83.2000 HU 85 2 11 328
1933176N09318 1933 20 NA CS NOT_NAMED 1933-07-03 03:00:00 TS 21.5575 -83.5427 main 46 10 P_____________ AL021933 21.5575 -83.5427 HU 85 2 11 324
1933176N09318 1933 20 NA CS NOT_NAMED 1933-07-03 06:00:00 TS 22.0000 -83.9000 85 hurdat_atl main 10 0 O_____________ hurdat_atl AL021933 22.0000 -83.9000 HU 85 2 11 324
1933176N09318 1933 20 NA NA NOT_NAMED 1933-07-03 09:00:00 TS 22.4725 -84.2575 main 10 10 P_____________ AL021933 22.4725 -84.2575 HU 82 1 11 324
1933176N09318 1933 20 NA GM NOT_NAMED 1933-07-03 12:00:00 TS 22.9000 -84.6000 80 hurdat_atl main 60 60 O_____________ hurdat_atl AL021933 22.9000 -84.6000 HU 80 1 10 322
1933176N09318 1933 20 NA GM NOT_NAMED 1933-07-03 15:00:00 TS 23.2374 -84.9077 main 105 105 P_____________ AL021933 23.2374 -84.9077 HU 80 1 8 317
1933176N09318 1933 20 NA GM NOT_NAMED 1933-07-03 18:00:00 TS 23.5000 -85.2000 80 hurdat_atl main 150 150 O_____________ hurdat_atl AL021933 23.5000 -85.2000 HU 80 1 7 311
1933176N09318 1933 20 NA GM NOT_NAMED 1933-07-03 21:00:00 TS 23.7149 -85.5002 main 188 188 P_____________ AL021933 23.7149 -85.5002 HU 82 1 7 306
1933176N09318 1933 20 NA GM NOT_NAMED 1933-07-04 00:00:00 TS 23.9000 -85.8000 85 hurdat_atl main 226 226 O_____________ hurdat_atl AL021933 23.9000 -85.8000 HU 85 2 7 305
1933176N09318 1933 20 NA GM NOT_NAMED 1933-07-04 03:00:00 TS 24.0999 -86.1001 main 263 263 P_____________ AL021933 24.0999 -86.1001 HU 85 2 7 306
1933176N09318 1933 20 NA GM NOT_NAMED 1933-07-04 06:00:00 TS 24.3000 -86.4000 85 hurdat_atl main 301 301 O_____________ hurdat_atl AL021933 24.3000 -86.4000 HU 85 2 7 307
1933176N09318 1933 20 NA GM NOT_NAMED 1933-07-04 09:00:00 TS 24.4998 -86.6852 main 336 335 P_____________ AL021933 24.4998 -86.6852 HU 85 2 7 306
1933176N09318 1933 20 NA GM NOT_NAMED 1933-07-04 12:00:00 TS 24.7000 -87.0000 85 hurdat_atl main 357 357 O_____________ hurdat_atl AL021933 24.7000 -87.0000 HU 85 2 7 303
1933176N09318 1933 20 NA GM NOT_NAMED 1933-07-04 15:00:00 TS 24.8998 -87.3627 main 381 380 P_____________ AL021933 24.8998 -87.3627 HU 85 2 8 299
1933176N09318 1933 20 NA GM NOT_NAMED 1933-07-04 18:00:00 TS 25.1000 -87.8000 85 hurdat_atl main 402 402 O_____________ hurdat_atl AL021933 25.1000 -87.8000 HU 85 2 10 297
1933176N09318 1933 20 NA GM NOT_NAMED 1933-07-04 21:00:00 TS 25.3297 -88.3047 main 420 391 P_____________ AL021933 25.3297 -88.3047 HU 87 2 11 292
1933176N09318 1933 20 NA GM NOT_NAMED 1933-07-05 00:00:00 TS 25.5000 -88.9000 90 hurdat_atl main 391 390 O_____________ hurdat_atl AL021933 25.5000 -88.9000 HU 90 2 12 280
1933176N09318 1933 20 NA GM NOT_NAMED 1933-07-05 03:00:00 TS 25.5302 -89.5929 main 393 393 P_____________ AL021933 25.5302 -89.5929 HU 92 2 13 270
1933176N09318 1933 20 NA GM NOT_NAMED 1933-07-05 06:00:00 TS 25.5000 -90.3000 95 hurdat_atl main 402 402 O_____________ hurdat_atl AL021933 25.5000 -90.3000 HU 95 2 12 269
1933176N09318 1933 20 NA GM NOT_NAMED 1933-07-05 09:00:00 TS 25.5146 -90.9223 main 402 402 P_____________ AL021933 25.5146 -90.9223 HU 95 2 11 270
1933176N09318 1933 20 NA GM NOT_NAMED 1933-07-05 12:00:00 TS 25.5000 -91.5000 95 hurdat_atl main 406 406 O_____________ hurdat_atl AL021933 25.5000 -91.5000 HU 95 2 10 264
1933176N09318 1933 20 NA GM NOT_NAMED 1933-07-05 15:00:00 TS 25.4148 -92.0651 main 429 429 P_____________ AL021933 25.4148 -92.0651 HU 95 2 10 259
1933176N09318 1933 20 NA GM NOT_NAMED 1933-07-05 18:00:00 TS 25.3000 -92.6000 95 hurdat_atl main 456 410 O_____________ hurdat_atl AL021933 25.3000 -92.6000 HU 95 2 10 257
1933176N09318 1933 20 NA GM NOT_NAMED 1933-07-05 21:00:00 TS 25.1998 -93.1074 main 410 364 P_____________ AL021933 25.1998 -93.1074 HU 95 2 9 258
1933176N09318 1933 20 NA GM NOT_NAMED 1933-07-06 00:00:00 TS 25.1000 -93.6000 95 hurdat_atl main 364 318 O_____________ hurdat_atl AL021933 25.1000 -93.6000 HU 95 2 9 258
1933176N09318 1933 20 NA GM NOT_NAMED 1933-07-06 03:00:00 TS 25.0073 -94.0998 main 318 272 P_____________ AL021933 25.0073 -94.0998 HU 92 2 9 258
1933176N09318 1933 20 NA GM NOT_NAMED 1933-07-06 06:00:00 TS 24.9000 -94.6000 90 hurdat_atl main 272 229 O_____________ hurdat_atl AL021933 24.9000 -94.6000 HU 90 2 9 255
1933176N09318 1933 20 NA GM NOT_NAMED 1933-07-06 09:00:00 TS 24.7649 -95.1074 main 229 193 P_____________ AL021933 24.7649 -95.1074 HU 90 2 10 252
1933176N09318 1933 20 NA GM NOT_NAMED 1933-07-06 12:00:00 TS 24.6000 -95.6000 90 hurdat_atl main 193 161 O_____________ hurdat_atl AL021933 24.6000 -95.6000 HU 90 2 9 248
1933176N09318 1933 20 NA GM NOT_NAMED 1933-07-06 15:00:00 TS 24.4147 -96.0498 main 165 126 P_____________ AL021933 24.4147 -96.0498 HU 87 2 9 244
1933176N09318 1933 20 NA GM NOT_NAMED 1933-07-06 18:00:00 TS 24.2000 -96.5000 85 hurdat_atl main 126 81 O_____________ hurdat_atl AL021933 24.2000 -96.5000 HU 85 2 10 242
1933176N09318 1933 20 NA GM NOT_NAMED 1933-07-06 21:00:00 TS 23.9648 -96.9848 main 81 30 P_____________ AL021933 23.9648 -96.9848 HU 85 2 10 241
1933176N09318 1933 20 NA GM NOT_NAMED 1933-07-07 00:00:00 TS 23.7000 -97.5000 85 hurdat_atl main 30 0 O_____________ hurdat_atl AL021933 23.7000 -97.5000 HU 85 2 11 240
1933176N09318 1933 20 NA NA NOT_NAMED 1933-07-07 03:00:00 TS 23.4073 -98.0349 main 0 0 P_____________ AL021933 23.4073 -98.0349 HU 72 1 12 239
1933176N09318 1933 20 NA NA NOT_NAMED 1933-07-07 06:00:00 TS 23.1000 -98.6000 60 hurdat_atl main 0 0 O_____________ hurdat_atl AL021933 23.1000 -98.6000 TS 60 0 12 240
1933176N09318 1933 20 NA NA NOT_NAMED 1933-07-07 09:00:00 TS 22.7980 -99.1930 main 0 0 P_____________ AL021933 22.7980 -99.1930 TS 47 0 13 242
1933176N09318 1933 20 NA NA NOT_NAMED 1933-07-07 12:00:00 TS 22.5000 -99.8000 35 hurdat_atl main 0 O_____________ hurdat_atl AL021933 22.5000 -99.8000 TS 35 0 13 242

About IBTrACS Database

This database is a web-friendly format of International Best Track Archive for Climate Stewardship (IBTrACS), a global best track data archive curated by NOAA dating back to 1842.

Updated: 2021-12-01